WetterOnline ( https://www.wetteronline.ch )

Wetter aktuell Luckenwalde

Aktuelles Wetter: Baruth (55m)

6-stündlich | Neueste Meldungen
Ortszeit Temperatur Wetter
Mi, 03.03. 19:00 8.5° C bedeckt
Mi, 03.03. 13:00 13.2° C wolkenlos
Mi, 03.03. 7:00 -4.2° C wolkenlos
Mi, 03.03. 1:00 -1.6° C wolkenlos
Di, 02.03. 19:00 4.7° C wolkenlos
Di, 02.03. 13:00 9.9° C wolkenlos
Di, 02.03. 7:00 -3.7° C Nebel
Di, 02.03. 1:00 -3.8° C wolkenlos
Ortszeit Temperatur Wetter
Do, 04.03. 0:00 7.1° C leicht bewölkt
Mi, 03.03. 23:40 7.3° C leicht bewölkt
Mi, 03.03. 23:30 7.4° C fast wolkenlos
Mi, 03.03. 23:20 7.4° C fast wolkenlos
Mi, 03.03. 23:10 7.6° C wolkenlos
Mi, 03.03. 23:00 7.8° C wolkenlos
Mi, 03.03. 22:50 7.8° C wolkenlos
Mi, 03.03. 22:30 7.6° C wolkenlos
Mi, 03.03. 22:00 7.7° C leicht bewölkt
Mi, 03.03. 21:30 9.3° C bedeckt
Mi, 03.03. 21:00 9.3° C bedeckt
Mi, 03.03. 20:30 9.2° C bedeckt
Ortszeit Relative Feuchte Sichtweite
Mi, 03.03. 19:00 70% 29 km
Mi, 03.03. 13:00 54% 25 km
Mi, 03.03. 7:00 95% 3.0 km
Mi, 03.03. 1:00 96% 13 km
Di, 02.03. 19:00 91% 19 km
Di, 02.03. 13:00 65% 26 km
Di, 02.03. 7:00 97% 0.4 km
Di, 02.03. 1:00 97% 5.0 km
Ortszeit Relative Feuchte Sichtweite
Do, 04.03. 0:00 77% 16 km
Mi, 03.03. 23:40 76% -
Mi, 03.03. 23:30 75% 20 km
Mi, 03.03. 23:20 75% -
Mi, 03.03. 23:10 74% -
Mi, 03.03. 23:00 73% 22 km
Mi, 03.03. 22:50 73% -
Mi, 03.03. 22:30 72% 25 km
Mi, 03.03. 22:00 70% 25 km
Mi, 03.03. 21:30 64% 29 km
Mi, 03.03. 21:00 65% 29 km
Mi, 03.03. 20:30 68% 29 km
Ortszeit Niederschlagsmenge Niederschlagsart
Mi, 03.03. 19:00 0.0 l/m2 in 12 Std. -
Mi, 03.03. 13:00 0.0 l/m2 in 6 Std. -
Mi, 03.03. 7:00 0.0 l/m2 in 12 Std. -
Mi, 03.03. 1:00 0.0 l/m2 in 6 Std. -
Di, 02.03. 19:00 0.0 l/m2 in 12 Std. -
Di, 02.03. 13:00 0.0 l/m2 in 6 Std. -
Di, 02.03. 7:00 0.0 l/m2 in 12 Std. -
Di, 02.03. 1:00 0.0 l/m2 in 6 Std. -
Ortszeit Niederschlagsmenge Niederschlagsart
Do, 04.03. 0:00 0.0 l/m2 in 1 Std. -
Mi, 03.03. 23:40 keine Meldung -
Mi, 03.03. 23:30 0.0 l/m2 in 1 Std. -
Mi, 03.03. 23:20 keine Meldung -
Mi, 03.03. 23:10 keine Meldung -
Mi, 03.03. 23:00 0.0 l/m2 in 1 Std. -
Mi, 03.03. 22:50 keine Meldung -
Mi, 03.03. 22:30 0.0 l/m2 in 1 Std. -
Mi, 03.03. 22:00 0.0 l/m2 in 1 Std. -
Mi, 03.03. 21:30 0.0 l/m2 in 1 Std. -
Mi, 03.03. 21:00 0.0 l/m2 in 1 Std. -
Mi, 03.03. 20:30 0.0 l/m2 in 1 Std. -
Ortszeit Stärke Spitze Richtung
km/h Bft. km/h Grad Sektor
Mi, 03.03. 19:00 9 2 26 240° SW
Mi, 03.03. 13:00 7 2 22 240° SW
Mi, 03.03. 7:00 2 1 11 100° O
Mi, 03.03. 1:00 4 1 11 120° SO
Di, 02.03. 19:00 2 1 15 280° W
Di, 02.03. 13:00 4 1 11 330° NW
Di, 02.03. 7:00 4 1 11 280° W
Di, 02.03. 1:00 0 0 7 - -
Ortszeit Stärke Spitze Richtung
km/h Bft. km/h Grad Sektor
Do, 04.03. 0:00 15 3 22 260° W
Mi, 03.03. 23:40 14 3 - 270° W
Mi, 03.03. 23:30 17 3 22 270° W
Mi, 03.03. 23:20 17 3 - 270° W
Mi, 03.03. 23:10 17 3 - 260° W
Mi, 03.03. 23:00 18 3 25 260° W
Mi, 03.03. 22:50 18 3 - 260° W
Mi, 03.03. 22:30 14 3 22 260° W
Mi, 03.03. 22:00 11 2 22 250° W
Mi, 03.03. 21:30 17 3 22 250° W
Mi, 03.03. 21:00 15 3 20 250° W
Mi, 03.03. 20:30 13 3 19 240° SW
Ortszeit Untergrenze Bedeckung Gattung
total tief tief mittel hoch
Mi, 03.03. 19:00 3300 m 8/8 8/8 - - -
Mi, 03.03. 13:00 - 0/8 0/8 - - -
Mi, 03.03. 7:00 - 0/8 0/8 - - -
Mi, 03.03. 1:00 - 0/8 0/8 - - -
Di, 02.03. 19:00 - 0/8 0/8 - - -
Di, 02.03. 13:00 - 0/8 0/8 - - -
Di, 02.03. 7:00 <30 m 8/8 0/8 - - -
Di, 02.03. 1:00 - 0/8 0/8 - - -
Ortszeit Bedeckungsgrad in Achtel und Wolkenuntergrenze
Do, 04.03. 0:00 4(3300m)
Mi, 03.03. 23:40 4(3300m)
Mi, 03.03. 23:30 1(3000m)
Mi, 03.03. 23:20 1(3000m)
Mi, 03.03. 23:10 keine Wolken
Mi, 03.03. 23:00 keine Wolken
Mi, 03.03. 22:50 keine Wolken
Mi, 03.03. 22:30 keine Wolken
Mi, 03.03. 22:00 2(3000m) 3(3600m)
Mi, 03.03. 21:30 8(3000m)
Mi, 03.03. 21:00 8(3000m)
Mi, 03.03. 20:30 8(3300m)
Ortszeit Luftdruck NN (hPa) Tendenz (hPa in 3 Std.)
Mi, 03.03. 19:00 1023 - 1,8
Mi, 03.03. 13:00 1027 - 1,5
Mi, 03.03. 7:00 1030 - 0,7
Mi, 03.03. 1:00 1032 - 0,8
Di, 02.03. 19:00 1033 - 0,3
Di, 02.03. 13:00 1035 - 0,7
Di, 02.03. 7:00 1035 0,0
Di, 02.03. 1:00 1036 - 0,1
Ortszeit Luftdruck NN (hPa) Tendenz (hPa in 3 Std.)
Do, 04.03. 0:00 1021 - 0,9
Mi, 03.03. 23:40 1021 keine Meldung
Mi, 03.03. 23:30 1021 - 1,0
Mi, 03.03. 23:20 1021 keine Meldung
Mi, 03.03. 23:10 1021 keine Meldung
Mi, 03.03. 23:00 1022 - 1,1
Mi, 03.03. 22:50 1022 keine Meldung
Mi, 03.03. 22:30 1022 - 1,4
Mi, 03.03. 22:00 1022 - 1,5
Mi, 03.03. 21:30 1022 - 1,5
Mi, 03.03. 21:00 1022 - 1,5
Mi, 03.03. 20:30 1022 - 1,5
Ortszeit Schneehöhe (cm)
Mi, 03.03. 19:00 0
Mi, 03.03. 13:00 0
Mi, 03.03. 7:00 0
Mi, 03.03. 1:00 0
Di, 02.03. 19:00 0
Di, 02.03. 13:00 0
Di, 02.03. 7:00 0
Di, 02.03. 1:00 0
Ortszeit Schneehöhe (cm)
Do, 04.03. 0:00 0
Mi, 03.03. 23:40 0
Mi, 03.03. 23:30 0
Mi, 03.03. 23:20 0
Mi, 03.03. 23:10 0
Mi, 03.03. 23:00 0
Mi, 03.03. 22:50 0
Mi, 03.03. 22:30 0
Mi, 03.03. 22:00 0
Mi, 03.03. 21:30 0
Mi, 03.03. 21:00 0
Mi, 03.03. 20:30 0
Link zu dieser Seite / Seite empfehlen

Das Wetter in ...